createdAt,value
2019-05-22T00:00:30.771Z,29.85
2019-05-22T00:03:04.021Z,30.20
2019-05-22T00:05:33.008Z,30.76
2019-05-22T00:08:05.056Z,30.40
2019-05-22T00:10:34.737Z,30.41
2019-05-22T00:13:04.647Z,29.56
2019-05-22T00:15:33.441Z,31.37
2019-05-22T00:18:02.738Z,30.77
2019-05-22T00:20:31.551Z,32.17
2019-05-22T00:23:03.211Z,31.13
2019-05-22T00:25:33.407Z,30.50
2019-05-22T00:28:04.165Z,31.12
2019-05-22T00:30:33.473Z,31.05
2019-05-22T00:33:02.193Z,31.01
2019-05-22T00:35:31.455Z,29.59
2019-05-22T00:38:01.413Z,30.06
2019-05-22T00:40:31.646Z,30.41
2019-05-22T00:43:04.105Z,29.73
2019-05-22T00:45:31.516Z,29.44
2019-05-22T00:48:00.353Z,30.13
2019-05-22T00:50:32.853Z,30.79
2019-05-22T00:53:03.154Z,30.02
2019-05-22T00:55:34.494Z,30.14
2019-05-22T00:58:05.961Z,30.97
2019-05-22T01:00:36.155Z,30.59
2019-05-22T01:03:06.161Z,31.03
2019-05-22T01:05:36.447Z,29.25
2019-05-22T01:08:06.367Z,30.68
2019-05-22T01:10:35.932Z,29.57
2019-05-22T01:13:04.380Z,30.16
2019-05-22T01:15:32.782Z,29.96
2019-05-22T01:18:04.550Z,30.15
2019-05-22T01:20:34.525Z,30.80
2019-05-22T01:23:02.956Z,30.11
2019-05-22T01:25:31.914Z,30.13
2019-05-22T01:28:02.053Z,29.22
2019-05-22T01:30:41.653Z,29.99
2019-05-22T01:33:12.086Z,30.23
2019-05-22T01:35:55.000Z,29.92
2019-05-22T01:38:23.396Z,30.19
2019-05-22T01:41:05.533Z,29.41
2019-05-22T01:43:35.156Z,30.85
2019-05-22T01:46:03.650Z,29.11
2019-05-22T01:48:39.465Z,30.07
2019-05-22T01:51:09.654Z,30.71
2019-05-22T01:53:40.559Z,29.34
2019-05-22T01:56:11.484Z,29.80
2019-05-22T01:58:42.398Z,29.85
2019-05-22T02:01:16.797Z,30.11
2019-05-22T02:03:47.091Z,29.95
2019-05-22T02:06:17.879Z,31.21
2019-05-22T02:08:53.305Z,31.46
2019-05-22T02:11:23.422Z,30.84
2019-05-22T02:13:54.937Z,30.48
2019-05-22T02:16:26.309Z,31.01
2019-05-22T02:18:54.580Z,29.54
2019-05-22T02:21:24.001Z,30.71
2019-05-22T02:23:52.587Z,29.14
2019-05-22T02:26:20.872Z,29.85
2019-05-22T02:28:49.583Z,29.30
2019-05-22T02:31:20.092Z,29.08
2019-05-22T02:34:04.996Z,30.58
2019-05-22T02:36:37.174Z,30.31
2019-05-22T02:39:13.670Z,30.14
2019-05-22T02:41:54.258Z,31.01
2019-05-22T02:44:23.700Z,31.03
2019-05-22T02:46:53.247Z,30.72
2019-05-22T02:49:23.061Z,30.44
2019-05-22T02:51:53.778Z,32.31
2019-05-22T02:54:22.294Z,31.72
2019-05-22T02:56:51.330Z,31.60
2019-05-22T02:59:19.752Z,31.22
2019-05-22T03:01:48.086Z,30.66
2019-05-22T03:04:18.211Z,30.06
2019-05-22T03:06:46.493Z,31.06
2019-05-22T03:09:18.386Z,30.98
2019-05-22T03:11:49.814Z,31.32
2019-05-22T03:14:20.101Z,30.62
2019-05-22T03:16:52.083Z,30.79
2019-05-22T03:19:34.023Z,30.84
2019-05-22T03:22:17.421Z,29.94
2019-05-22T03:24:46.279Z,30.66
2019-05-22T03:27:14.818Z,30.50
2019-05-22T03:29:52.400Z,30.73
2019-05-22T03:32:21.537Z,29.89
2019-05-22T03:34:50.451Z,31.13
2019-05-22T03:37:19.556Z,30.44
2019-05-22T03:39:48.843Z,31.53
2019-05-22T03:42:18.948Z,30.48
2019-05-22T03:44:47.553Z,31.23
2019-05-22T03:47:16.326Z,30.55
2019-05-22T03:49:45.638Z,29.98
2019-05-22T03:52:15.056Z,30.17
2019-05-22T03:54:43.634Z,32.48
2019-05-22T03:57:13.162Z,31.38
2019-05-22T03:59:41.441Z,31.67
2019-05-22T04:02:10.401Z,32.85
2019-05-22T04:04:40.462Z,31.33
2019-05-22T04:07:12.116Z,30.75
2019-05-22T04:09:42.982Z,31.13
2019-05-22T04:12:11.666Z,31.75
2019-05-22T04:14:40.299Z,32.10
2019-05-22T04:17:10.578Z,32.71
2019-05-22T04:19:49.236Z,31.16
2019-05-22T04:22:11.145Z,31.51
2019-05-22T04:24:42.417Z,29.53
2019-05-22T04:27:12.422Z,30.31
2019-05-22T04:29:42.285Z,29.87
2019-05-22T04:32:14.098Z,30.62
2019-05-22T04:34:44.814Z,29.68
2019-05-22T04:37:15.051Z,30.31
2019-05-22T04:39:46.024Z,30.10
2019-05-22T04:42:16.010Z,30.77
2019-05-22T04:45:09.001Z,29.38
2019-05-22T04:47:37.738Z,31.40
2019-05-22T04:50:08.590Z,31.09
2019-05-22T04:52:37.109Z,29.77
2019-05-22T04:55:09.055Z,30.47
2019-05-22T04:57:37.342Z,31.56
2019-05-22T05:00:08.809Z,30.90
2019-05-22T05:02:38.397Z,31.55
2019-05-22T05:05:09.396Z,31.02
2019-05-22T05:07:39.270Z,30.81
2019-05-22T05:10:09.387Z,30.84
2019-05-22T05:12:39.294Z,29.19
2019-05-22T05:15:08.052Z,31.65
2019-05-22T05:17:36.857Z,30.92
2019-05-22T05:20:21.366Z,31.80
2019-05-22T05:22:42.088Z,31.05
2019-05-22T05:25:10.600Z,32.36
2019-05-22T05:27:38.933Z,31.84
2019-05-22T05:30:07.342Z,30.45
2019-05-22T05:32:36.796Z,31.00
2019-05-22T05:35:08.558Z,31.40
2019-05-22T05:37:38.074Z,30.01
2019-05-22T05:40:09.696Z,30.72
2019-05-22T05:42:38.251Z,32.18
2019-05-22T05:45:12.776Z,30.89
2019-05-22T05:47:39.392Z,31.10
2019-05-22T05:50:10.515Z,30.97
2019-05-22T05:52:40.410Z,31.21
2019-05-22T05:55:09.315Z,31.01
2019-05-22T05:57:45.342Z,31.27
2019-05-22T06:00:27.793Z,30.49
2019-05-22T06:03:02.455Z,31.00
2019-05-22T06:05:30.739Z,30.77
2019-05-22T06:07:59.017Z,30.53
2019-05-22T06:10:31.498Z,30.84
2019-05-22T06:13:00.520Z,31.50
2019-05-22T06:15:45.809Z,30.40
2019-05-22T06:18:14.383Z,31.01
2019-05-22T06:20:42.656Z,30.94
2019-05-22T06:23:29.398Z,30.30
2019-05-22T06:25:58.290Z,31.40
2019-05-22T06:28:31.314Z,30.93
2019-05-22T06:31:02.098Z,31.80
2019-05-22T06:33:32.799Z,31.26
2019-05-22T06:36:04.597Z,31.43
2019-05-22T06:38:52.264Z,28.97
2019-05-22T06:41:23.244Z,29.61
2019-05-22T06:44:11.350Z,30.48
2019-05-22T06:46:46.284Z,30.04
2019-05-22T06:49:35.735Z,30.50
2019-05-22T06:52:05.535Z,30.76
2019-05-22T06:54:34.061Z,30.30
2019-05-22T06:57:02.462Z,30.52
2019-05-22T06:59:30.894Z,28.73
2019-05-22T07:02:01.654Z,29.73
2019-05-22T07:04:30.370Z,29.80
2019-05-22T07:06:59.483Z,29.59
2019-05-22T07:09:29.499Z,30.12
2019-05-22T07:11:58.751Z,28.52
2019-05-22T07:14:27.413Z,30.49
2019-05-22T07:16:56.105Z,30.70
2019-05-22T07:19:24.933Z,30.04
2019-05-22T07:21:53.239Z,29.46
2019-05-22T07:24:22.679Z,29.10
2019-05-22T07:26:52.585Z,29.60
2019-05-22T07:29:21.227Z,29.49
2019-05-22T07:31:50.222Z,28.91
2019-05-22T07:34:18.475Z,30.40
2019-05-22T07:36:46.765Z,32.18
2019-05-22T07:39:15.290Z,31.52
2019-05-22T07:41:43.925Z,32.62
2019-05-22T07:44:12.220Z,31.72
2019-05-22T07:46:40.570Z,31.32
2019-05-22T07:49:08.963Z,31.54
2019-05-22T07:51:50.497Z,32.14
2019-05-22T07:54:07.425Z,31.50
2019-05-22T07:56:36.442Z,30.47
2019-05-22T07:59:05.165Z,30.15
2019-05-22T08:01:34.515Z,30.25
2019-05-22T08:04:04.583Z,30.69
2019-05-22T08:06:33.084Z,29.42
2019-05-22T08:09:03.778Z,31.07
2019-05-22T08:11:32.467Z,31.05
2019-05-22T08:14:00.850Z,30.86
2019-05-22T08:16:29.281Z,32.13
2019-05-22T08:18:57.816Z,33.12
2019-05-22T08:21:26.530Z,31.39
2019-05-22T08:23:54.850Z,31.21
2019-05-22T08:26:24.744Z,31.99
2019-05-22T08:28:53.070Z,32.96
2019-05-22T08:31:22.949Z,33.47
2019-05-22T08:33:51.389Z,32.99
2019-05-22T08:36:19.752Z,30.53
2019-05-22T08:38:48.095Z,30.68
2019-05-22T08:41:19.935Z,30.04
2019-05-22T08:44:14.407Z,30.46
2019-05-22T08:46:19.904Z,30.73
2019-05-22T08:48:49.461Z,29.39
2019-05-22T08:51:18.517Z,31.50
2019-05-22T08:53:48.735Z,30.52
2019-05-22T08:56:17.562Z,30.67
2019-05-22T08:58:46.307Z,30.22
2019-05-22T09:01:16.119Z,29.88
2019-05-22T09:03:45.319Z,30.39
2019-05-22T09:06:14.003Z,30.09
2019-05-22T09:08:42.351Z,29.92
2019-05-22T09:11:11.377Z,28.88
2019-05-22T09:13:40.188Z,29.92
2019-05-22T09:16:09.476Z,29.53
2019-05-22T09:18:37.800Z,31.61
2019-05-22T09:21:07.787Z,29.11
2019-05-22T09:23:36.796Z,29.36
2019-05-22T09:26:06.514Z,29.82
2019-05-22T09:28:34.760Z,30.14
2019-05-22T09:31:03.162Z,30.73
2019-05-22T09:33:32.121Z,31.48
2019-05-22T09:36:01.139Z,31.38
2019-05-22T09:38:31.036Z,31.21
2019-05-22T09:40:59.773Z,31.07
2019-05-22T09:43:30.364Z,31.29
2019-05-22T09:45:59.739Z,30.81
2019-05-22T09:48:28.139Z,30.90
2019-05-22T09:50:57.266Z,31.50
2019-05-22T09:53:26.138Z,30.43
2019-05-22T09:55:54.778Z,31.80
2019-05-22T09:58:23.339Z,30.21
2019-05-22T10:00:52.116Z,30.16
2019-05-22T10:03:21.220Z,31.49
2019-05-22T10:05:49.829Z,29.84
2019-05-22T10:08:18.136Z,29.69
2019-05-22T10:10:47.264Z,30.31
2019-05-22T10:13:15.636Z,31.70
2019-05-22T10:15:44.227Z,29.69
2019-05-22T10:18:13.806Z,31.00
2019-05-22T10:20:42.146Z,32.41
2019-05-22T10:23:15.996Z,31.11
2019-05-22T10:25:41.973Z,30.78
2019-05-22T10:28:10.599Z,30.53
2019-05-22T10:30:38.944Z,31.30
2019-05-22T10:33:08.325Z,30.35
2019-05-22T10:35:37.417Z,32.16
2019-05-22T10:38:07.366Z,31.19
2019-05-22T10:40:36.587Z,30.68
2019-05-22T10:43:05.080Z,31.68
2019-05-22T10:45:34.532Z,31.05
2019-05-22T10:48:03.073Z,32.90
2019-05-22T10:50:32.597Z,30.44
2019-05-22T10:53:00.909Z,31.67
2019-05-22T10:55:30.196Z,32.14
2019-05-22T10:57:58.527Z,32.83
2019-05-22T11:00:26.968Z,30.67
2019-05-22T11:02:55.672Z,29.51
2019-05-22T11:05:24.582Z,32.00
2019-05-22T11:07:53.032Z,30.21
2019-05-22T11:10:23.028Z,32.34
2019-05-22T11:12:52.944Z,32.52
2019-05-22T11:15:22.594Z,31.01
2019-05-22T11:17:52.473Z,32.43
2019-05-22T11:20:21.941Z,32.33
2019-05-22T11:22:50.195Z,31.75
2019-05-22T11:25:22.404Z,32.87
2019-05-22T11:27:52.578Z,30.08
2019-05-22T11:30:21.226Z,31.00
2019-05-22T11:32:51.004Z,31.46
2019-05-22T11:35:21.418Z,31.19
2019-05-22T11:37:50.060Z,32.52
2019-05-22T11:40:18.825Z,32.04
2019-05-22T11:42:47.886Z,31.89
2019-05-22T11:45:17.140Z,33.35
2019-05-22T11:47:45.882Z,32.03
2019-05-22T11:50:16.615Z,34.50
2019-05-22T11:52:45.116Z,33.89
2019-05-22T11:55:14.194Z,34.67
2019-05-22T11:57:43.523Z,32.89
2019-05-22T12:00:13.636Z,34.50
2019-05-22T12:02:45.112Z,32.16
2019-05-22T12:05:17.660Z,33.95
2019-05-22T12:07:54.082Z,33.32
2019-05-22T12:10:24.425Z,33.71
2019-05-22T12:12:53.644Z,34.04
2019-05-22T12:15:25.182Z,32.99
2019-05-22T12:17:55.052Z,31.54
2019-05-22T12:20:26.284Z,32.69
2019-05-22T12:22:57.348Z,34.57
2019-05-22T12:25:26.348Z,36.47
2019-05-22T12:27:55.040Z,35.29
2019-05-22T12:30:26.106Z,34.71
2019-05-22T12:32:59.094Z,35.46
2019-05-22T12:35:28.287Z,34.84
2019-05-22T12:37:57.460Z,34.64
2019-05-22T12:40:29.753Z,36.67
2019-05-22T12:43:00.320Z,35.14
2019-05-22T12:45:32.018Z,36.10
2019-05-22T12:48:01.726Z,39.28
2019-05-22T12:50:31.382Z,39.07
2019-05-22T12:53:02.102Z,34.49
2019-05-22T12:55:33.135Z,38.02
2019-05-22T12:58:03.455Z,37.91
2019-05-22T13:00:33.605Z,36.36
2019-05-22T13:03:03.439Z,37.86
2019-05-22T13:05:34.087Z,36.17
2019-05-22T13:08:02.523Z,34.34
2019-05-22T13:10:31.773Z,37.31
2019-05-22T13:13:00.088Z,38.16
2019-05-22T13:15:30.749Z,37.69
2019-05-22T13:17:59.769Z,37.25
2019-05-22T13:20:42.593Z,38.83
2019-05-22T13:23:07.765Z,41.06
2019-05-22T13:25:38.904Z,40.94
2019-05-22T13:28:17.861Z,36.86
2019-05-22T13:30:56.533Z,38.87
2019-05-22T13:33:31.642Z,39.54
2019-05-22T13:36:00.349Z,37.95
2019-05-22T13:38:28.789Z,43.02
2019-05-22T13:40:57.576Z,43.75
2019-05-22T13:43:27.687Z,43.70
2019-05-22T13:45:58.055Z,44.61
2019-05-22T13:48:30.407Z,42.30
2019-05-22T13:51:00.128Z,41.97
2019-05-22T13:53:29.536Z,43.53
2019-05-22T13:56:01.252Z,39.51
2019-05-22T13:58:29.685Z,39.95
2019-05-22T14:00:58.178Z,39.05
2019-05-22T14:03:26.546Z,41.63
2019-05-22T14:05:55.781Z,39.37
2019-05-22T14:08:28.065Z,38.95
2019-05-22T14:10:56.437Z,42.04
2019-05-22T14:13:26.541Z,44.51
2019-05-22T14:15:57.182Z,44.83
2019-05-22T14:18:26.141Z,43.99
2019-05-22T14:20:54.801Z,41.90
2019-05-22T14:23:23.206Z,40.41
2019-05-22T14:25:52.211Z,37.30
2019-05-22T14:28:21.445Z,38.06
2019-05-22T14:30:49.730Z,39.75
2019-05-22T14:33:20.103Z,42.07
2019-05-22T14:35:52.476Z,39.72
2019-05-22T14:38:23.637Z,40.39
2019-05-22T14:40:52.115Z,38.99
2019-05-22T14:43:20.379Z,43.27
2019-05-22T14:45:49.684Z,41.91
2019-05-22T14:48:18.967Z,44.37
2019-05-22T14:50:49.422Z,40.94
2019-05-22T14:53:18.193Z,40.10
2019-05-22T14:55:47.087Z,40.00
2019-05-22T14:58:15.434Z,39.05
2019-05-22T15:00:45.748Z,40.12
2019-05-22T15:03:14.270Z,38.99
2019-05-22T15:05:42.572Z,40.15
2019-05-22T15:08:11.101Z,43.98
2019-05-22T15:10:39.811Z,41.00
2019-05-22T15:13:08.960Z,39.18
2019-05-22T15:15:40.545Z,38.50
2019-05-22T15:18:07.761Z,36.45
2019-05-22T15:20:53.516Z,36.70
2019-05-22T15:23:21.971Z,36.97
2019-05-22T15:25:51.843Z,37.69
2019-05-22T15:28:20.795Z,37.84
2019-05-22T15:30:49.687Z,36.96
2019-05-22T15:33:19.047Z,37.91
2019-05-22T15:35:48.782Z,37.91
2019-05-22T15:38:18.139Z,38.24
2019-05-22T15:40:46.774Z,37.73
2019-05-22T15:43:15.833Z,39.12
2019-05-22T15:45:44.311Z,37.66
2019-05-22T15:48:15.724Z,38.40
2019-05-22T15:50:57.820Z,37.02
2019-05-22T15:53:48.566Z,34.28
2019-05-22T15:56:17.694Z,38.87
2019-05-22T15:58:51.640Z,41.58
2019-05-22T16:01:21.926Z,40.91
2019-05-22T16:03:51.226Z,41.02
2019-05-22T16:06:21.856Z,41.54
2019-05-22T16:08:50.753Z,42.15
2019-05-22T16:11:20.265Z,40.19
2019-05-22T16:13:48.561Z,35.89
2019-05-22T16:16:20.266Z,36.15
2019-05-22T16:18:49.782Z,35.68
2019-05-22T16:21:18.687Z,35.03
2019-05-22T16:23:47.392Z,35.11
2019-05-22T16:26:16.713Z,35.01
2019-05-22T16:28:45.720Z,33.83
2019-05-22T16:31:14.710Z,35.17
2019-05-22T16:33:44.399Z,34.79
2019-05-22T16:36:14.258Z,35.34
2019-05-22T16:38:43.817Z,34.71
2019-05-22T16:41:12.638Z,34.77
2019-05-22T16:43:49.360Z,34.84
2019-05-22T16:46:14.909Z,34.46
2019-05-22T16:48:43.771Z,36.05
2019-05-22T16:51:15.389Z,35.75
2019-05-22T16:53:46.841Z,36.86
2019-05-22T16:56:15.584Z,36.26
2019-05-22T16:58:43.917Z,37.26
2019-05-22T17:01:12.335Z,36.53
2019-05-22T17:03:41.406Z,35.76
2019-05-22T17:06:09.760Z,34.45
2019-05-22T17:08:38.281Z,33.63
2019-05-22T17:11:07.275Z,34.90
2019-05-22T17:13:36.808Z,33.03
2019-05-22T17:16:06.734Z,34.76
2019-05-22T17:18:46.579Z,33.83
2019-05-22T17:21:06.662Z,34.43
2019-05-22T17:23:35.102Z,34.91
2019-05-22T17:26:04.395Z,33.37
2019-05-22T17:28:32.802Z,34.63
2019-05-22T17:31:01.411Z,33.68
2019-05-22T17:33:30.592Z,32.84
2019-05-22T17:36:00.370Z,33.83
2019-05-22T17:38:29.300Z,33.71
2019-05-22T17:40:59.737Z,33.91
2019-05-22T17:43:29.589Z,33.89
2019-05-22T17:45:58.399Z,34.24
2019-05-22T17:48:27.555Z,35.41
2019-05-22T17:50:56.756Z,34.80
2019-05-22T17:53:25.837Z,36.34
2019-05-22T17:55:54.622Z,34.62
2019-05-22T17:58:27.269Z,34.07
2019-05-22T18:00:55.985Z,33.46
2019-05-22T18:03:25.575Z,34.22
2019-05-22T18:05:53.924Z,35.08
2019-05-22T18:08:23.467Z,34.32
2019-05-22T18:10:52.112Z,34.57
2019-05-22T18:13:21.235Z,35.76
2019-05-22T18:15:51.140Z,35.05
2019-05-22T18:18:24.468Z,34.57
2019-05-22T18:20:57.268Z,35.21
2019-05-22T18:23:25.537Z,35.55
2019-05-22T18:25:53.935Z,35.22
2019-05-22T18:28:22.342Z,35.08
2019-05-22T18:30:50.707Z,34.99
2019-05-22T18:33:23.382Z,35.83
2019-05-22T18:35:56.721Z,36.31
2019-05-22T18:38:25.127Z,35.65
2019-05-22T18:40:53.499Z,34.80
2019-05-22T18:43:23.106Z,35.58
2019-05-22T18:45:51.844Z,36.10
2019-05-22T18:48:20.682Z,36.23
2019-05-22T18:50:48.931Z,34.59
2019-05-22T18:53:17.394Z,35.40
2019-05-22T18:55:45.733Z,35.29
2019-05-22T18:58:14.148Z,35.76
2019-05-22T19:00:42.522Z,36.13
2019-05-22T19:03:11.315Z,36.38
2019-05-22T19:05:39.634Z,35.38
2019-05-22T19:08:07.895Z,34.75
2019-05-22T19:10:37.344Z,36.15
2019-05-22T19:13:05.680Z,35.53
2019-05-22T19:15:34.012Z,35.10
2019-05-22T19:18:02.432Z,35.19
2019-05-22T19:20:30.811Z,35.07
2019-05-22T19:23:01.597Z,34.38
2019-05-22T19:25:45.984Z,35.07
2019-05-22T19:28:43.412Z,34.12
2019-05-22T19:31:05.598Z,34.99
2019-05-22T19:33:33.855Z,34.60
2019-05-22T19:36:02.230Z,34.71
2019-05-22T19:38:30.597Z,34.64
2019-05-22T19:40:59.259Z,35.20
2019-05-22T19:43:28.204Z,34.70
2019-05-22T19:45:56.615Z,35.46
2019-05-22T19:48:25.517Z,34.66
2019-05-22T19:50:54.268Z,34.36
2019-05-22T19:53:22.907Z,34.68
2019-05-22T19:55:51.667Z,34.38
2019-05-22T19:58:21.949Z,34.23
2019-05-22T20:00:50.892Z,34.79
2019-05-22T20:03:19.895Z,34.37
2019-05-22T20:05:48.667Z,34.29
2019-05-22T20:08:17.055Z,32.80
2019-05-22T20:10:45.416Z,33.44
2019-05-22T20:13:13.860Z,34.01
2019-05-22T20:15:42.515Z,33.76
2019-05-22T20:18:11.746Z,34.16
2019-05-22T20:20:40.664Z,33.59
2019-05-22T20:23:09.689Z,31.66
2019-05-22T20:25:38.157Z,33.18
2019-05-22T20:28:06.976Z,32.90
2019-05-22T20:30:35.850Z,33.88
2019-05-22T20:33:04.148Z,33.66
2019-05-22T20:35:32.532Z,33.45
2019-05-22T20:38:01.828Z,32.19
2019-05-22T20:40:30.429Z,31.98
2019-05-22T20:42:59.564Z,33.28
2019-05-22T20:45:29.699Z,33.03
2019-05-22T20:48:09.584Z,33.16
2019-05-22T20:50:38.201Z,31.03
2019-05-22T20:53:08.187Z,32.67
2019-05-22T20:55:38.508Z,32.75
2019-05-22T20:58:07.819Z,30.31
2019-05-22T21:00:36.594Z,30.75
2019-05-22T21:03:06.121Z,30.44
2019-05-22T21:05:35.811Z,30.67
2019-05-22T21:08:08.026Z,31.63
2019-05-22T21:10:36.737Z,30.14
2019-05-22T21:13:05.758Z,31.68
2019-05-22T21:15:35.160Z,32.48
2019-05-22T21:18:05.094Z,32.92
2019-05-22T21:20:33.908Z,32.56
2019-05-22T21:23:04.062Z,29.97
2019-05-22T21:25:33.520Z,29.30
2019-05-22T21:28:01.869Z,30.67
2019-05-22T21:30:30.248Z,31.67
2019-05-22T21:32:58.542Z,32.86
2019-05-22T21:35:27.287Z,30.72
2019-05-22T21:37:56.686Z,31.03
2019-05-22T21:40:25.131Z,32.01
2019-05-22T21:42:54.152Z,31.75
2019-05-22T21:45:22.798Z,32.33
2019-05-22T21:47:51.487Z,31.68
2019-05-22T21:50:20.320Z,32.24
2019-05-22T21:52:48.809Z,33.13
2019-05-22T21:55:18.297Z,31.95
2019-05-22T21:57:46.749Z,32.09
2019-05-22T22:00:40.616Z,31.89
2019-05-22T22:03:19.299Z,31.99
2019-05-22T22:05:48.205Z,31.84
2019-05-22T22:08:16.837Z,31.13
2019-05-22T22:10:45.126Z,31.56
2019-05-22T22:13:13.785Z,31.55
2019-05-22T22:15:43.806Z,31.72
2019-05-22T22:18:13.219Z,30.86
2019-05-22T22:20:42.969Z,31.11
2019-05-22T22:23:13.576Z,31.91
2019-05-22T22:25:42.598Z,31.36
2019-05-22T22:28:12.757Z,31.22
2019-05-22T22:30:45.641Z,29.88
2019-05-22T22:33:16.010Z,28.96
2019-05-22T22:35:44.843Z,31.56
2019-05-22T22:38:13.662Z,31.57
2019-05-22T22:40:44.030Z,31.03
2019-05-22T22:43:14.097Z,31.24
2019-05-22T22:45:48.092Z,31.36
2019-05-22T22:48:18.136Z,31.73
2019-05-22T22:50:47.814Z,31.95
2019-05-22T22:53:16.934Z,32.28
2019-05-22T22:55:45.257Z,30.98
2019-05-22T22:58:17.564Z,29.88
2019-05-22T23:00:46.722Z,31.64
2019-05-22T23:03:18.774Z,31.73
2019-05-22T23:05:48.690Z,31.00
2019-05-22T23:08:23.328Z,30.72
2019-05-22T23:10:52.839Z,30.68
2019-05-22T23:13:22.717Z,30.42
2019-05-22T23:15:51.863Z,30.32
2019-05-22T23:18:42.814Z,30.63
2019-05-22T23:21:11.712Z,31.33
2019-05-22T23:23:40.837Z,31.24
2019-05-22T23:26:09.256Z,31.33
2019-05-22T23:28:40.788Z,31.30
2019-05-22T23:31:09.724Z,31.37
2019-05-22T23:33:39.065Z,31.36
2019-05-22T23:36:08.791Z,31.56
2019-05-22T23:38:38.367Z,31.73
2019-05-22T23:41:07.824Z,31.75
2019-05-22T23:43:36.413Z,31.64
2019-05-22T23:46:06.404Z,31.32
2019-05-22T23:48:35.870Z,31.21
2019-05-22T23:51:06.035Z,31.74
2019-05-22T23:53:35.392Z,31.71
2019-05-22T23:56:04.618Z,31.71
2019-05-22T23:58:34.469Z,31.45
